Time;durP1;ratioP1;P1;durP2;ratioP2;P2;SDS_P1;SDS_P2;PMS_P1;PMS_P2;Temp;Humidity;BMP_temperature;BMP_pressure;BME280_temperature;BME280_humidity;BME280_pressure;Samples;Min_cycle;Max_cycle;Signal;HPM_P1;HPM_P2
2024/01/31 00:01:42;;;;;;;11.73;4.97;;;;;;;;;;10448922;28;20204;-68
2024/01/31 00:06:47;;;;;;;9.70;5.23;;;;;;;;;;10451062;28;20278;-68
2024/01/31 00:11:47;;;;;;;14.17;5.17;;;;;;;;;;10450712;28;20289;-68
2024/01/31 00:16:47;;;;;;;9.20;4.90;;;;;;;;;;10450732;28;20180;-68
2024/01/31 00:21:48;;;;;;;12.57;5.70;;;;;;;;;;10449125;28;20219;-68
2024/01/31 00:26:48;;;;;;;9.50;5.30;;;;;;;;;;10450334;28;20229;-68
2024/01/31 00:31:48;;;;;;;10.80;5.13;;;;;;;;;;10449375;28;20212;-68
2024/01/31 00:36:48;;;;;;;15.83;5.63;;;;;;;;;;10450047;28;20250;-68
2024/01/31 00:41:50;;;;;;;13.07;6.17;;;;;;;;;;10450382;28;20214;-69
2024/01/31 00:46:50;;;;;;;8.20;5.13;;;;;;;;;;10449741;28;20192;-68
2024/01/31 00:51:50;;;;;;;9.27;5.70;;;;;;;;;;10451610;28;20215;-68
2024/01/31 00:56:50;;;;;;;10.50;5.77;;;;;;;;;;10462093;28;20561;-68
2024/01/31 01:01:51;;;;;;;11.87;5.90;;;;;;;;;;10463118;28;20207;-68
2024/01/31 01:06:51;;;;;;;17.87;5.90;;;;;;;;;;10463289;28;20200;-68
2024/01/31 01:11:51;;;;;;;12.07;6.17;;;;;;;;;;10460810;28;20713;-68
2024/01/31 01:16:51;;;;;;;11.30;5.87;;;;;;;;;;10462421;28;20602;-68
2024/01/31 01:21:52;;;;;;;16.03;6.67;;;;;;;;;;10462478;28;20277;-68
2024/01/31 01:26:52;;;;;;;18.07;7.43;;;;;;;;;;10463783;28;20234;-68
2024/01/31 01:31:53;;;;;;;21.20;7.93;;;;;;;;;;10463374;28;20767;-68
2024/01/31 01:36:53;;;;;;;13.23;7.30;;;;;;;;;;10462721;28;20607;-68
2024/01/31 01:41:53;;;;;;;12.97;7.50;;;;;;;;;;10462603;28;20322;-68
2024/01/31 01:46:54;;;;;;;15.10;8.00;;;;;;;;;;10461645;28;20188;-68
2024/01/31 01:51:54;;;;;;;13.73;8.07;;;;;;;;;;10462432;28;20999;-68
2024/01/31 01:56:54;;;;;;;19.43;9.07;;;;;;;;;;10462174;28;20567;-68
2024/01/31 02:01:54;;;;;;;15.67;8.13;;;;;;;;;;10461959;28;20215;-68
2024/01/31 02:06:55;;;;;;;14.90;8.30;;;;;;;;;;10454488;28;20194;-68
2024/01/31 02:11:55;;;;;;;11.67;7.40;;;;;;;;;;10455142;28;20645;-68
2024/01/31 02:16:57;;;;;;;9.83;6.77;;;;;;;;;;10456407;28;20188;-68
2024/01/31 02:22:01;;;;;;;14.70;7.77;;;;;;;;;;10455112;28;20204;-68
2024/01/31 02:27:01;;;;;;;16.13;7.43;;;;;;;;;;10453460;28;20192;-68
2024/01/31 02:32:01;;;;;;;11.47;7.47;;;;;;;;;;10454530;28;20215;-68
2024/01/31 02:37:01;;;;;;;13.23;7.50;;;;;;;;;;10454714;28;20192;-68
2024/01/31 02:42:02;;;;;;;12.00;7.53;;;;;;;;;;10454186;28;20318;-68
2024/01/31 02:47:02;;;;;;;15.07;9.40;;;;;;;;;;10454051;28;20292;-67
2024/01/31 02:52:02;;;;;;;16.07;10.23;;;;;;;;;;10455004;28;20330;-68
2024/01/31 02:57:03;;;;;;;20.17;11.17;;;;;;;;;;10453620;28;20496;-68
2024/01/31 03:02:05;;;;;;;17.50;10.33;;;;;;;;;;10453829;28;20223;-68
2024/01/31 03:07:05;;;;;;;17.50;10.60;;;;;;;;;;10453430;28;20681;-68
2024/01/31 03:12:05;;;;;;;15.17;10.17;;;;;;;;;;10453182;28;20236;-68
2024/01/31 03:17:06;;;;;;;25.90;11.73;;;;;;;;;;10450198;28;20287;-68
2024/01/31 03:22:06;;;;;;;21.73;10.83;;;;;;;;;;10477294;22;20732;-70
2024/01/31 03:27:06;;;;;;;17.20;10.80;;;;;;;;;;10460007;28;20179;-70
2024/01/31 03:32:06;;;;;;;17.27;11.80;;;;;;;;;;10466614;28;20731;-70
2024/01/31 03:37:06;;;;;;;22.13;13.13;;;;;;;;;;10468587;28;20180;-70
2024/01/31 03:42:07;;;;;;;21.83;12.77;;;;;;;;;;10467684;28;20458;-70
2024/01/31 03:47:07;;;;;;;22.13;12.77;;;;;;;;;;10468156;28;20550;-70
2024/01/31 03:52:07;;;;;;;23.13;13.40;;;;;;;;;;10467501;28;20322;-70
2024/01/31 03:57:07;;;;;;;21.10;13.43;;;;;;;;;;10467643;28;20191;-70
2024/01/31 04:02:07;;;;;;;19.83;12.60;;;;;;;;;;10466815;28;20211;-70
2024/01/31 04:07:08;;;;;;;22.13;12.20;;;;;;;;;;10467162;28;20433;-70
2024/01/31 04:12:08;;;;;;;19.13;12.40;;;;;;;;;;10466853;28;20248;-69
2024/01/31 04:17:08;;;;;;;20.03;13.07;;;;;;;;;;10465254;28;20188;-69
2024/01/31 04:22:08;;;;;;;21.73;12.33;;;;;;;;;;10464495;28;20235;-69
2024/01/31 04:27:08;;;;;;;20.70;13.30;;;;;;;;;;10465351;28;20273;-69
2024/01/31 04:32:09;;;;;;;18.77;12.53;;;;;;;;;;10467932;28;20211;-69
2024/01/31 04:37:10;;;;;;;19.47;12.97;;;;;;;;;;10465083;28;20194;-70
2024/01/31 04:42:10;;;;;;;22.47;13.10;;;;;;;;;;10465065;28;20200;-69
2024/01/31 04:47:10;;;;;;;19.23;12.00;;;;;;;;;;10462437;28;20179;-69
2024/01/31 04:52:11;;;;;;;19.27;12.13;;;;;;;;;;10459653;28;20584;-69
2024/01/31 04:57:11;;;;;;;21.40;12.43;;;;;;;;;;10462550;28;20278;-69
2024/01/31 05:02:11;;;;;;;20.23;11.90;;;;;;;;;;10464785;28;20290;-70
2024/01/31 05:07:11;;;;;;;20.30;12.53;;;;;;;;;;10473498;28;20191;-69
2024/01/31 05:12:11;;;;;;;25.43;12.30;;;;;;;;;;10483770;28;20558;-69
2024/01/31 05:17:15;;;;;;;17.93;11.93;;;;;;;;;;10480084;28;20671;-69
2024/01/31 05:22:15;;;;;;;21.63;12.30;;;;;;;;;;10478480;28;20981;-69
2024/01/31 05:27:15;;;;;;;18.33;11.83;;;;;;;;;;10483433;28;20196;-69
2024/01/31 05:32:16;;;;;;;15.97;11.27;;;;;;;;;;10481334;28;20211;-69
2024/01/31 05:37:16;;;;;;;19.67;12.23;;;;;;;;;;10480031;28;20572;-70
2024/01/31 05:42:16;;;;;;;19.40;12.67;;;;;;;;;;10486102;28;20217;-69
2024/01/31 05:47:16;;;;;;;20.80;12.60;;;;;;;;;;10490465;28;20185;-69
2024/01/31 05:52:16;;;;;;;19.57;12.00;;;;;;;;;;10483258;28;20200;-69
2024/01/31 05:57:17;;;;;;;20.50;13.43;;;;;;;;;;10490114;28;20195;-69
2024/01/31 06:02:17;;;;;;;22.43;14.17;;;;;;;;;;10487855;28;20207;-69
2024/01/31 06:07:18;;;;;;;21.77;13.03;;;;;;;;;;10486604;28;20568;-68
2024/01/31 06:12:18;;;;;;;18.27;12.57;;;;;;;;;;10481722;28;20249;-69
2024/01/31 06:17:18;;;;;;;21.87;14.13;;;;;;;;;;10489342;28;20760;-68
2024/01/31 06:22:19;;;;;;;21.37;13.33;;;;;;;;;;10484050;28;20247;-69
2024/01/31 06:27:19;;;;;;;23.07;14.53;;;;;;;;;;10480064;28;20199;-69
2024/01/31 06:32:22;;;;;;;22.60;14.90;;;;;;;;;;10485442;28;20207;-69
2024/01/31 06:37:22;;;;;;;20.53;13.20;;;;;;;;;;10488844;28;20179;-69
2024/01/31 06:42:23;;;;;;;25.37;14.17;;;;;;;;;;10486738;28;20211;-69
2024/01/31 06:47:23;;;;;;;16.40;12.17;;;;;;;;;;10488298;28;20808;-69
2024/01/31 06:52:24;;;;;;;18.00;11.00;;;;;;;;;;10484924;28;20216;-69
2024/01/31 06:57:25;;;;;;;19.27;11.40;;;;;;;;;;10479963;28;20186;-69
2024/01/31 07:02:28;;;;;;;16.50;9.37;;;;;;;;;;10485701;28;20208;-69
2024/01/31 07:07:28;;;;;;;14.03;9.67;;;;;;;;;;10486937;28;20194;-69
2024/01/31 07:12:28;;;;;;;18.97;10.50;;;;;;;;;;10484368;28;20207;-69
2024/01/31 07:17:29;;;;;;;17.77;9.30;;;;;;;;;;10486641;28;20183;-69
2024/01/31 07:22:29;;;;;;;16.30;11.40;;;;;;;;;;10486458;28;20238;-68
2024/01/31 07:27:29;;;;;;;16.00;10.37;;;;;;;;;;10483472;28;20210;-68
2024/01/31 07:32:29;;;;;;;14.23;9.33;;;;;;;;;;10486127;28;20293;-69
2024/01/31 07:37:30;;;;;;;21.00;11.30;;;;;;;;;;10482476;28;20183;-69
2024/01/31 07:42:30;;;;;;;13.97;8.80;;;;;;;;;;10482881;28;20218;-69
2024/01/31 07:47:30;;;;;;;13.77;8.77;;;;;;;;;;10483909;28;20198;-69
2024/01/31 07:52:34;;;;;;;19.83;10.33;;;;;;;;;;10485700;28;20214;-69
2024/01/31 07:57:34;;;;;;;21.90;10.97;;;;;;;;;;10473273;28;20195;-69
2024/01/31 08:02:34;;;;;;;13.43;8.87;;;;;;;;;;10483189;28;20219;-69
2024/01/31 08:07:34;;;;;;;20.93;10.87;;;;;;;;;;10478345;28;20245;-69
2024/01/31 08:12:35;;;;;;;14.97;8.20;;;;;;;;;;10480233;28;20462;-69
2024/01/31 08:17:35;;;;;;;15.93;7.77;;;;;;;;;;10478174;28;20686;-69
2024/01/31 08:22:35;;;;;;;12.90;7.50;;;;;;;;;;10477220;28;20317;-69
2024/01/31 08:27:36;;;;;;;13.70;8.53;;;;;;;;;;10475902;28;20708;-69
2024/01/31 08:32:37;;;;;;;19.00;9.97;;;;;;;;;;10481168;28;20211;-68
2024/01/31 08:37:37;;;;;;;11.57;8.10;;;;;;;;;;10470229;28;20249;-69
2024/01/31 08:42:38;;;;;;;15.77;7.73;;;;;;;;;;10475742;28;20203;-69
2024/01/31 08:47:38;;;;;;;14.20;8.63;;;;;;;;;;10474123;28;20293;-68
2024/01/31 08:52:39;;;;;;;15.60;9.13;;;;;;;;;;10477362;28;20211;-68
2024/01/31 08:57:39;;;;;;;14.17;8.60;;;;;;;;;;10474967;28;20192;-68
2024/01/31 09:02:39;;;;;;;12.87;8.83;;;;;;;;;;10473813;28;20215;-68
2024/01/31 09:07:40;;;;;;;11.03;7.30;;;;;;;;;;10480344;28;20309;-68
2024/01/31 09:12:40;;;;;;;11.67;7.63;;;;;;;;;;10480605;28;20219;-69
2024/01/31 09:17:40;;;;;;;14.23;7.93;;;;;;;;;;10490065;28;20261;-69
2024/01/31 09:22:40;;;;;;;13.87;8.77;;;;;;;;;;10486205;28;20630;-69
2024/01/31 09:27:40;;;;;;;16.20;9.60;;;;;;;;;;10481442;28;20222;-69
2024/01/31 09:32:41;;;;;;;14.53;9.43;;;;;;;;;;10483667;28;20625;-69
2024/01/31 09:37:41;;;;;;;12.40;8.60;;;;;;;;;;10487605;28;20429;-69
2024/01/31 09:42:43;;;;;;;14.47;9.30;;;;;;;;;;10477447;28;20237;-68
2024/01/31 09:47:45;;;;;;;14.83;8.60;;;;;;;;;;10486908;28;20748;-69
2024/01/31 09:52:47;;;;;;;10.67;7.57;;;;;;;;;;10486197;28;20560;-69
2024/01/31 09:57:47;;;;;;;15.40;8.33;;;;;;;;;;10487198;28;20196;-69
2024/01/31 10:02:48;;;;;;;13.70;7.67;;;;;;;;;;10486611;28;20709;-68
2024/01/31 10:07:48;;;;;;;11.63;6.80;;;;;;;;;;10486896;28;20211;-69
2024/01/31 10:12:48;;;;;;;9.10;7.10;;;;;;;;;;10464567;28;20693;-69
2024/01/31 10:24:08;;;;;;;10.60;7.00;;;;;;;;;;10464976;28;20235;-69
2024/01/31 10:29:09;;;;;;;10.37;6.37;;;;;;;;;;10471345;28;20211;-69
2024/01/31 10:34:10;;;;;;;11.60;6.93;;;;;;;;;;10485626;28;20211;-69
2024/01/31 10:39:10;;;;;;;10.50;7.30;;;;;;;;;;10485558;28;20717;-69
2024/01/31 10:44:13;;;;;;;11.40;7.43;;;;;;;;;;10485073;28;20210;-68
2024/01/31 10:49:16;;;;;;;12.50;7.27;;;;;;;;;;10481802;28;20260;-69
2024/01/31 10:54:17;;;;;;;12.43;7.17;;;;;;;;;;10484741;28;20633;-68
2024/01/31 10:59:18;;;;;;;12.37;7.50;;;;;;;;;;10484866;28;20230;-69
2024/01/31 11:04:18;;;;;;;10.77;6.73;;;;;;;;;;10484314;28;20246;-69
2024/01/31 11:09:22;;;;;;;9.20;6.60;;;;;;;;;;10483562;28;20330;-68
2024/01/31 11:14:27;;;;;;;11.20;6.13;;;;;;;;;;10484092;28;20656;-68
2024/01/31 11:19:27;;;;;;;8.10;5.63;;;;;;;;;;10479881;28;20203;-68
2024/01/31 11:24:29;;;;;;;7.93;5.50;;;;;;;;;;10483075;28;20281;-68
2024/01/31 11:29:30;;;;;;;8.10;5.27;;;;;;;;;;10483190;28;20716;-68
2024/01/31 11:34:30;;;;;;;7.00;4.73;;;;;;;;;;10482229;28;20282;-68
2024/01/31 11:39:31;;;;;;;6.57;4.10;;;;;;;;;;10481325;28;20569;-68
2024/01/31 11:44:31;;;;;;;7.73;4.90;;;;;;;;;;10482559;28;20211;-69
2024/01/31 11:49:31;;;;;;;6.20;5.03;;;;;;;;;;10479506;28;20226;-68
2024/01/31 11:54:31;;;;;;;7.60;5.10;;;;;;;;;;10482061;28;20211;-69
2024/01/31 11:59:32;;;;;;;5.53;4.20;;;;;;;;;;10481898;28;20274;-69
2024/01/31 12:04:32;;;;;;;5.38;4.20;;;;;;;;;;10481967;28;20246;-68
2024/01/31 12:09:33;;;;;;;4.23;3.83;;;;;;;;;;10481078;28;20271;-68
2024/01/31 12:14:33;;;;;;;4.60;3.33;;;;;;;;;;10481455;28;20290;-68
2024/01/31 12:19:37;;;;;;;5.27;3.73;;;;;;;;;;10480596;28;20282;-68
2024/01/31 12:24:37;;;;;;;5.90;3.63;;;;;;;;;;10476776;28;20242;-68
2024/01/31 12:29:37;;;;;;;5.13;3.50;;;;;;;;;;10479717;28;20226;-68
2024/01/31 12:34:37;;;;;;;6.27;3.93;;;;;;;;;;10480548;28;20203;-68
2024/01/31 12:39:38;;;;;;;3.23;2.90;;;;;;;;;;10480310;28;20615;-68
2024/01/31 12:44:38;;;;;;;6.63;3.37;;;;;;;;;;10477826;28;20207;-68
2024/01/31 12:49:39;;;;;;;4.20;3.53;;;;;;;;;;10479281;28;20207;-67
2024/01/31 12:54:39;;;;;;;5.57;3.63;;;;;;;;;;10478249;28;20219;-67
2024/01/31 12:59:40;;;;;;;5.00;4.37;;;;;;;;;;10480311;28;20198;-67
2024/01/31 13:04:43;;;;;;;3.80;3.40;;;;;;;;;;10460168;28;20273;-67
2024/01/31 13:09:43;;;;;;;3.27;2.97;;;;;;;;;;10465093;28;20224;-67
2024/01/31 13:14:44;;;;;;;4.63;3.53;;;;;;;;;;10447129;28;20215;-68
2024/01/31 13:19:44;;;;;;;5.90;4.47;;;;;;;;;;10447144;28;20450;-67
2024/01/31 13:24:44;;;;;;;5.97;4.50;;;;;;;;;;10445732;28;20488;-67
2024/01/31 13:29:45;;;;;;;6.50;4.80;;;;;;;;;;10446936;28;20227;-68
2024/01/31 13:34:45;;;;;;;8.53;4.63;;;;;;;;;;10447404;28;20219;-68
2024/01/31 13:39:45;;;;;;;5.17;4.23;;;;;;;;;;10446899;28;20282;-68
2024/01/31 13:44:45;;;;;;;5.57;4.50;;;;;;;;;;10457888;28;20223;-68
2024/01/31 13:49:46;;;;;;;5.73;4.40;;;;;;;;;;10463132;28;20322;-68
2024/01/31 13:54:46;;;;;;;5.93;4.50;;;;;;;;;;10455093;28;20218;-67
2024/01/31 13:59:49;;;;;;;5.87;4.67;;;;;;;;;;10446185;28;20882;-67
2024/01/31 14:04:50;;;;;;;5.23;3.90;;;;;;;;;;10454107;28;20216;-66
2024/01/31 14:09:50;;;;;;;5.50;4.30;;;;;;;;;;10453514;28;20228;-67
2024/01/31 14:14:50;;;;;;;5.97;4.77;;;;;;;;;;10453652;28;20220;-67
2024/01/31 14:19:50;;;;;;;9.20;4.87;;;;;;;;;;10453656;28;20191;-67
2024/01/31 14:24:50;;;;;;;7.60;5.47;;;;;;;;;;10452234;28;20292;-67
2024/01/31 14:29:50;;;;;;;6.27;4.90;;;;;;;;;;10468589;28;20218;-67
2024/01/31 14:34:51;;;;;;;7.23;5.30;;;;;;;;;;10470547;28;20215;-67
2024/01/31 14:39:51;;;;;;;7.33;4.20;;;;;;;;;;10470455;28;20657;-67
2024/01/31 14:44:51;;;;;;;4.80;4.30;;;;;;;;;;10469895;28;20573;-68
2024/01/31 14:49:51;;;;;;;4.50;3.60;;;;;;;;;;10469585;28;20732;-67
2024/01/31 14:54:52;;;;;;;6.43;4.10;;;;;;;;;;10470169;28;20252;-68
2024/01/31 14:59:52;;;;;;;5.73;4.10;;;;;;;;;;10469357;28;20445;-68
2024/01/31 15:04:52;;;;;;;5.20;4.43;;;;;;;;;;10467685;28;20977;-67
2024/01/31 15:09:52;;;;;;;6.23;4.30;;;;;;;;;;10468492;28;20875;-68
2024/01/31 15:14:53;;;;;;;6.67;4.40;;;;;;;;;;10467684;28;20470;-67
2024/01/31 15:19:54;;;;;;;7.03;4.67;;;;;;;;;;10468557;28;20227;-67
2024/01/31 15:24:54;;;;;;;6.30;4.50;;;;;;;;;;10467790;28;20231;-68
2024/01/31 15:29:54;;;;;;;5.73;4.53;;;;;;;;;;10467893;28;20220;-68
2024/01/31 15:34:55;;;;;;;5.23;3.80;;;;;;;;;;10466091;28;20202;-68
2024/01/31 15:39:55;;;;;;;4.30;3.33;;;;;;;;;;10467456;28;20207;-68
2024/01/31 15:44:56;;;;;;;12.17;9.47;;;;;;;;;;10467150;28;20706;-68
2024/01/31 15:49:56;;;;;;;7.03;4.50;;;;;;;;;;10467011;28;20215;-67
2024/01/31 15:54:56;;;;;;;7.00;5.60;;;;;;;;;;10466907;28;20297;-68
2024/01/31 15:59:56;;;;;;;5.90;4.33;;;;;;;;;;10466259;28;20196;-67
2024/01/31 16:04:57;;;;;;;9.37;4.27;;;;;;;;;;10466640;28;20266;-67
2024/01/31 16:09:57;;;;;;;11.57;7.23;;;;;;;;;;10464862;28;20303;-68
2024/01/31 16:14:57;;;;;;;8.07;4.87;;;;;;;;;;10463198;28;20204;-67
2024/01/31 16:19:57;;;;;;;7.53;5.17;;;;;;;;;;10465413;28;20195;-67
2024/01/31 16:24:57;;;;;;;8.67;4.70;;;;;;;;;;10464646;28;20246;-67
2024/01/31 16:29:57;;;;;;;8.50;5.07;;;;;;;;;;10465253;28;20586;-68
2024/01/31 16:34:58;;;;;;;5.47;4.50;;;;;;;;;;10464991;28;20346;-67
2024/01/31 16:39:59;;;;;;;7.43;5.47;;;;;;;;;;10461110;28;20192;-68
2024/01/31 16:44:59;;;;;;;11.07;7.70;;;;;;;;;;10464548;28;20207;-67
2024/01/31 16:49:59;;;;;;;9.43;6.90;;;;;;;;;;10464663;28;20216;-68
2024/01/31 16:55:00;;;;;;;9.43;6.20;;;;;;;;;;10464523;28;20204;-69
2024/01/31 17:00:00;;;;;;;7.47;4.67;;;;;;;;;;10462837;28;20199;-67
2024/01/31 17:05:00;;;;;;;5.10;4.10;;;;;;;;;;10465904;28;20310;-67
2024/01/31 17:10:00;;;;;;;6.97;5.00;;;;;;;;;;10465799;28;20211;-67
2024/01/31 17:15:00;;;;;;;8.93;6.57;;;;;;;;;;10466186;28;20215;-66
2024/01/31 17:20:01;;;;;;;7.47;4.53;;;;;;;;;;10465923;28;20251;-67
2024/01/31 17:25:01;;;;;;;7.13;4.40;;;;;;;;;;10465254;28;20231;-67
2024/01/31 17:30:02;;;;;;;7.67;6.10;;;;;;;;;;10465385;28;20211;-67
2024/01/31 17:35:03;;;;;;;6.38;5.13;;;;;;;;;;10468560;28;20195;-68
2024/01/31 17:40:03;;;;;;;7.33;4.80;;;;;;;;;;10474953;28;20204;-67
2024/01/31 17:45:03;;;;;;;60.97;37.53;;;;;;;;;;10476108;28;20235;-67
2024/01/31 17:50:04;;;;;;;12.10;6.30;;;;;;;;;;10472657;28;20219;-67
2024/01/31 17:55:05;;;;;;;21.03;11.90;;;;;;;;;;10473026;28;20219;-67
2024/01/31 18:00:06;;;;;;;11.13;8.87;;;;;;;;;;10479174;28;20195;-68
2024/01/31 18:05:09;;;;;;;7.20;5.40;;;;;;;;;;10483884;28;20693;-68
2024/01/31 18:10:10;;;;;;;13.23;8.10;;;;;;;;;;10478155;28;20276;-67
2024/01/31 18:15:11;;;;;;;15.97;5.63;;;;;;;;;;10480900;28;20203;-67
2024/01/31 18:20:11;;;;;;;8.30;6.17;;;;;;;;;;10482406;28;20179;-67
2024/01/31 18:25:11;;;;;;;11.10;6.67;;;;;;;;;;10482310;28;20325;-68
2024/01/31 18:30:12;;;;;;;9.60;6.10;;;;;;;;;;10482089;28;20292;-67
2024/01/31 18:35:15;;;;;;;13.05;8.07;;;;;;;;;;10482173;28;20457;-67
2024/01/31 18:40:15;;;;;;;10.43;6.47;;;;;;;;;;10481778;28;20226;-68
2024/01/31 18:45:15;;;;;;;9.30;5.93;;;;;;;;;;10469990;28;20214;-67
2024/01/31 18:50:16;;;;;;;9.27;5.30;;;;;;;;;;10470375;28;20223;-67
2024/01/31 18:55:16;;;;;;;9.50;5.80;;;;;;;;;;10470190;28;20215;-68
2024/01/31 19:00:16;;;;;;;9.97;6.50;;;;;;;;;;10470086;28;20442;-67
2024/01/31 19:05:17;;;;;;;18.93;7.43;;;;;;;;;;10469504;28;20250;-67
2024/01/31 19:10:17;;;;;;;12.60;8.50;;;;;;;;;;10469577;28;20219;-67
2024/01/31 19:15:18;;;;;;;11.87;7.07;;;;;;;;;;10482807;28;20209;-67
2024/01/31 19:20:18;;;;;;;9.53;6.70;;;;;;;;;;10482660;28;20191;-67
2024/01/31 19:25:18;;;;;;;8.33;5.60;;;;;;;;;;10481013;28;20313;-67
2024/01/31 19:30:18;;;;;;;9.80;6.17;;;;;;;;;;10481490;28;20210;-67
2024/01/31 19:35:18;;;;;;;8.07;5.13;;;;;;;;;;10481254;28;20449;-67
2024/01/31 19:40:19;;;;;;;8.03;5.27;;;;;;;;;;10480885;28;20195;-67
2024/01/31 19:45:19;;;;;;;7.37;4.70;;;;;;;;;;10480693;28;20701;-67
2024/01/31 19:50:22;;;;;;;15.30;10.20;;;;;;;;;;10480239;28;20253;-67
2024/01/31 19:55:22;;;;;;;7.87;6.03;;;;;;;;;;10480114;28;20224;-66
2024/01/31 20:00:22;;;;;;;10.57;5.90;;;;;;;;;;10474200;28;20242;-67
2024/01/31 20:05:22;;;;;;;26.30;13.37;;;;;;;;;;10467300;28;20219;-67
2024/01/31 20:10:23;;;;;;;20.27;10.03;;;;;;;;;;10479422;28;20215;-66
2024/01/31 20:15:23;;;;;;;17.60;8.17;;;;;;;;;;10479486;28;20216;-66
2024/01/31 20:20:23;;;;;;;22.10;10.07;;;;;;;;;;10478886;28;20195;-67
2024/01/31 20:25:23;;;;;;;13.17;6.57;;;;;;;;;;10472092;28;20235;-67
2024/01/31 20:30:24;;;;;;;8.60;5.50;;;;;;;;;;10470776;28;20215;-67
2024/01/31 20:35:24;;;;;;;8.40;5.77;;;;;;;;;;10478407;28;20208;-67
2024/01/31 20:40:25;;;;;;;7.17;5.00;;;;;;;;;;10477594;28;20638;-67
2024/01/31 20:45:25;;;;;;;8.80;5.90;;;;;;;;;;10478318;28;20223;-67
2024/01/31 20:50:25;;;;;;;7.93;5.80;;;;;;;;;;10469636;28;20570;-67
2024/01/31 20:55:25;;;;;;;9.27;5.37;;;;;;;;;;10472325;28;20215;-67
2024/01/31 21:00:25;;;;;;;7.63;5.60;;;;;;;;;;10477294;28;20619;-67
2024/01/31 21:05:26;;;;;;;10.13;6.40;;;;;;;;;;10477609;28;20212;-67
2024/01/31 21:10:26;;;;;;;8.67;4.90;;;;;;;;;;10463290;28;20264;-68
2024/01/31 21:15:46;;;;;;;8.30;5.67;;;;;;;;;;10490808;28;20747;-68
2024/01/31 21:21:11;;;;;;;13.50;6.83;;;;;;;;;;10480568;28;20198;-68
2024/01/31 21:26:11;;;;;;;6.67;5.03;;;;;;;;;;10486809;28;20234;-68
2024/01/31 21:31:11;;;;;;;11.03;5.80;;;;;;;;;;10486846;28;20631;-69
2024/01/31 21:36:12;;;;;;;9.37;4.67;;;;;;;;;;10485891;28;20211;-68
2024/01/31 21:41:12;;;;;;;8.00;4.27;;;;;;;;;;10485442;28;20264;-68
2024/01/31 21:46:12;;;;;;;10.03;4.30;;;;;;;;;;10484903;28;20631;-68
2024/01/31 21:51:12;;;;;;;5.73;4.70;;;;;;;;;;10485053;28;20242;-68
2024/01/31 21:56:19;;;;;;;6.67;4.10;;;;;;;;;;10484394;28;20464;-68
2024/01/31 22:01:19;;;;;;;8.87;4.50;;;;;;;;;;10484541;28;20666;-68
2024/01/31 22:06:20;;;;;;;4.67;3.70;;;;;;;;;;10484094;28;20302;-68
2024/01/31 22:11:20;;;;;;;7.80;5.00;;;;;;;;;;10484197;28;20562;-68
2024/01/31 22:16:20;;;;;;;9.73;5.50;;;;;;;;;;10483962;28;20460;-68
2024/01/31 22:21:20;;;;;;;8.83;5.30;;;;;;;;;;10483349;28;20233;-68
2024/01/31 22:26:22;;;;;;;6.20;4.17;;;;;;;;;;10483274;28;20477;-68
2024/01/31 22:31:22;;;;;;;6.03;4.20;;;;;;;;;;10483715;28;20519;-67
2024/01/31 22:36:22;;;;;;;7.37;4.10;;;;;;;;;;10483444;28;20215;-68
2024/01/31 22:41:22;;;;;;;5.73;4.37;;;;;;;;;;10483460;28;20684;-68
2024/01/31 22:46:23;;;;;;;6.03;3.87;;;;;;;;;;10482734;28;20229;-68
2024/01/31 22:51:23;;;;;;;9.23;3.97;;;;;;;;;;10483338;28;20289;-68
2024/01/31 22:56:23;;;;;;;5.57;3.67;;;;;;;;;;10476999;28;20768;-68
2024/01/31 23:01:24;;;;;;;5.53;3.80;;;;;;;;;;10480669;28;20191;-68
2024/01/31 23:06:24;;;;;;;5.07;3.50;;;;;;;;;;10480631;28;20212;-68
2024/01/31 23:11:24;;;;;;;4.90;3.87;;;;;;;;;;10480240;28;20330;-68
2024/01/31 23:16:24;;;;;;;4.43;3.17;;;;;;;;;;10480260;28;20203;-68
2024/01/31 23:21:24;;;;;;;5.87;3.43;;;;;;;;;;10479792;28;20193;-68
2024/01/31 23:26:25;;;;;;;5.77;3.87;;;;;;;;;;10479643;28;20236;-68
2024/01/31 23:31:25;;;;;;;4.77;3.80;;;;;;;;;;10479182;28;20311;-68
2024/01/31 23:36:26;;;;;;;5.20;3.50;;;;;;;;;;10479268;28;20208;-68
2024/01/31 23:41:26;;;;;;;7.40;3.33;;;;;;;;;;10479064;28;20220;-68
2024/01/31 23:46:27;;;;;;;4.73;3.50;;;;;;;;;;10478554;28;20207;-68
2024/01/31 23:51:28;;;;;;;4.87;3.43;;;;;;;;;;10478601;28;20224;-68
2024/01/31 23:56:28;;;;;;;6.30;4.43;;;;;;;;;;10478214;28;20211;-68
